createdAt,value
2023-02-09T00:00:31.510Z,10.83
2023-02-09T00:02:59.620Z,10.13
2023-02-09T00:05:27.766Z,12.87
2023-02-09T00:07:55.891Z,10.93
2023-02-09T00:10:25.378Z,11.30
2023-02-09T00:13:11.371Z,10.40
2023-02-09T00:15:40.282Z,9.43
2023-02-09T00:18:08.562Z,9.30
2023-02-09T00:20:36.640Z,10.17
2023-02-09T00:23:04.745Z,10.27
2023-02-09T00:25:34.318Z,11.37
2023-02-09T00:28:02.564Z,11.77
2023-02-09T00:30:31.465Z,9.83
2023-02-09T00:32:59.735Z,11.43
2023-02-09T00:35:28.290Z,11.30
2023-02-09T00:37:56.594Z,11.53
2023-02-09T00:40:24.695Z,10.00
2023-02-09T00:42:54.289Z,9.73
2023-02-09T00:45:22.522Z,10.60
2023-02-09T00:47:50.918Z,10.77
2023-02-09T00:50:19.292Z,12.03
2023-02-09T00:52:47.384Z,10.77
2023-02-09T00:55:16.850Z,10.57
2023-02-09T00:57:45.155Z,9.13
2023-02-09T01:00:16.885Z,11.17
2023-02-09T01:02:46.179Z,8.87
2023-02-09T01:05:14.812Z,11.10
2023-02-09T01:07:45.168Z,10.17
2023-02-09T01:10:13.630Z,8.40
2023-02-09T01:12:42.994Z,9.47
2023-02-09T01:15:11.814Z,12.07
2023-02-09T01:17:50.430Z,10.93
2023-02-09T01:20:19.349Z,9.47
2023-02-09T01:22:48.067Z,10.63
2023-02-09T01:25:16.400Z,10.20
2023-02-09T01:27:44.534Z,9.37
2023-02-09T01:30:14.470Z,9.47
2023-02-09T01:32:42.671Z,10.57
2023-02-09T01:35:13.093Z,9.50
2023-02-09T01:37:41.222Z,10.13
2023-02-09T01:40:11.157Z,12.27
2023-02-09T01:42:39.409Z,13.67
2023-02-09T01:45:22.153Z,11.77
2023-02-09T01:47:54.013Z,12.43
2023-02-09T01:50:23.586Z,10.63
2023-02-09T01:52:51.889Z,10.60
2023-02-09T01:55:24.165Z,13.50
2023-02-09T01:57:54.407Z,11.37
2023-02-09T02:00:23.065Z,12.90
2023-02-09T02:02:55.537Z,12.73
2023-02-09T02:05:26.424Z,11.60
2023-02-09T02:07:59.195Z,13.47
2023-02-09T02:10:27.396Z,11.93
2023-02-09T02:12:55.786Z,11.33
2023-02-09T02:15:26.283Z,12.70
2023-02-09T02:18:12.342Z,13.00
2023-02-09T02:21:12.543Z,11.50
2023-02-09T02:23:48.384Z,11.20
2023-02-09T02:26:52.752Z,12.83
2023-02-09T02:29:52.030Z,11.33
2023-02-09T02:32:38.240Z,13.33
2023-02-09T02:35:10.429Z,10.37
2023-02-09T02:37:49.710Z,11.23
2023-02-09T02:40:26.773Z,16.97
2023-02-09T02:42:58.280Z,13.80
2023-02-09T02:45:45.033Z,12.57
2023-02-09T02:48:26.483Z,11.87
2023-02-09T02:51:06.676Z,15.50
2023-02-09T02:53:36.605Z,13.17
2023-02-09T02:56:08.434Z,10.30
2023-02-09T02:58:37.853Z,12.17
2023-02-09T03:01:06.179Z,11.57
2023-02-09T03:03:35.921Z,12.70
2023-02-09T03:06:05.749Z,12.10
2023-02-09T03:08:50.863Z,12.70
2023-02-09T03:11:20.070Z,13.87
2023-02-09T03:14:32.698Z,12.53
2023-02-09T03:17:10.216Z,11.93
2023-02-09T03:19:44.715Z,13.20
2023-02-09T03:22:16.616Z,12.07
2023-02-09T03:24:49.975Z,13.10
2023-02-09T03:27:20.285Z,11.40
2023-02-09T03:29:50.255Z,12.50
2023-02-09T03:32:18.498Z,13.20
2023-02-09T03:34:47.962Z,12.70
2023-02-09T03:37:16.480Z,13.33
2023-02-09T03:39:44.644Z,12.63
2023-02-09T03:42:12.848Z,12.57
2023-02-09T03:44:40.933Z,13.13
2023-02-09T03:47:09.929Z,11.57
2023-02-09T03:49:40.115Z,12.50
2023-02-09T03:52:36.366Z,15.20
2023-02-09T03:55:09.873Z,13.70
2023-02-09T03:57:39.160Z,13.40
2023-02-09T04:00:09.711Z,12.73
2023-02-09T04:02:43.509Z,13.43
2023-02-09T04:05:11.740Z,11.77
2023-02-09T04:07:41.428Z,14.30
2023-02-09T04:10:10.216Z,14.17
2023-02-09T04:12:38.382Z,13.83
2023-02-09T04:15:07.427Z,13.47
2023-02-09T04:17:35.539Z,11.83
2023-02-09T04:20:03.818Z,11.73
2023-02-09T04:22:31.963Z,13.40
2023-02-09T04:25:01.546Z,14.80
2023-02-09T04:27:30.406Z,10.40
2023-02-09T04:29:58.635Z,11.33
2023-02-09T04:32:26.940Z,12.23
2023-02-09T04:34:55.073Z,15.53
2023-02-09T04:37:23.184Z,12.67
2023-02-09T04:39:51.310Z,12.70
2023-02-09T04:42:20.741Z,13.60
2023-02-09T04:44:48.969Z,13.03
2023-02-09T04:47:17.089Z,13.97
2023-02-09T04:49:45.336Z,11.80
2023-02-09T04:52:13.529Z,14.67
2023-02-09T04:54:41.620Z,13.20
2023-02-09T04:57:27.623Z,13.50
2023-02-09T04:59:57.085Z,12.20
2023-02-09T05:02:25.301Z,12.93
2023-02-09T05:04:53.489Z,14.27
2023-02-09T05:07:23.167Z,12.93
2023-02-09T05:09:51.390Z,12.57
2023-02-09T05:12:19.589Z,12.63
2023-02-09T05:14:48.829Z,13.30
2023-02-09T05:17:20.989Z,12.80
2023-02-09T05:19:49.172Z,14.30
2023-02-09T05:22:17.699Z,13.03
2023-02-09T05:24:45.819Z,11.47
2023-02-09T05:27:14.011Z,11.10
2023-02-09T05:29:42.172Z,12.70
2023-02-09T05:32:10.376Z,14.67
2023-02-09T05:34:39.873Z,12.87
2023-02-09T05:37:07.976Z,11.73
2023-02-09T05:39:36.114Z,12.30
2023-02-09T05:42:16.474Z,11.70
2023-02-09T05:44:45.250Z,13.93
2023-02-09T05:47:13.957Z,14.03
2023-02-09T05:49:43.503Z,10.97
2023-02-09T05:52:12.171Z,13.20
2023-02-09T05:54:40.636Z,12.07
2023-02-09T05:57:08.812Z,11.63
2023-02-09T05:59:36.929Z,15.33
2023-02-09T06:02:05.192Z,13.23
2023-02-09T06:04:33.579Z,13.43
2023-02-09T06:07:04.292Z,12.17
2023-02-09T06:09:32.473Z,12.47
2023-02-09T06:12:00.617Z,15.20
2023-02-09T06:14:29.021Z,12.07
2023-02-09T06:16:57.176Z,13.67
2023-02-09T06:19:25.689Z,14.23
2023-02-09T06:21:53.997Z,13.63
2023-02-09T06:24:24.014Z,14.07
2023-02-09T06:26:52.440Z,13.03
2023-02-09T06:29:20.917Z,12.90
2023-02-09T06:31:49.478Z,14.97
2023-02-09T06:34:18.070Z,13.33
2023-02-09T06:36:46.663Z,15.13
2023-02-09T06:39:15.158Z,13.83
2023-02-09T06:41:44.965Z,16.90
2023-02-09T06:44:13.503Z,16.23
2023-02-09T06:46:42.040Z,15.70
2023-02-09T06:49:10.571Z,13.53
2023-02-09T06:51:39.194Z,16.50
2023-02-09T06:54:07.845Z,13.70
2023-02-09T06:56:36.382Z,13.80
2023-02-09T06:59:06.104Z,14.70
2023-02-09T07:01:34.529Z,14.73
2023-02-09T07:04:03.565Z,13.27
2023-02-09T07:06:32.240Z,12.47
2023-02-09T07:09:00.594Z,13.47
2023-02-09T07:11:30.552Z,12.60
2023-02-09T07:13:59.055Z,15.90
2023-02-09T07:16:29.120Z,13.03
2023-02-09T07:18:59.430Z,12.90
2023-02-09T07:21:28.581Z,13.47
2023-02-09T07:23:56.928Z,14.80
2023-02-09T07:26:25.511Z,11.17
2023-02-09T07:28:53.840Z,14.47
2023-02-09T07:31:22.295Z,13.77
2023-02-09T07:33:52.199Z,14.13
2023-02-09T07:36:20.579Z,13.10
2023-02-09T07:38:48.869Z,14.07
2023-02-09T07:41:19.256Z,14.90
2023-02-09T07:43:47.489Z,13.80
2023-02-09T07:46:17.476Z,13.40
2023-02-09T07:48:45.869Z,10.87
2023-02-09T07:51:16.143Z,12.00
2023-02-09T07:53:44.489Z,15.60
2023-02-09T07:56:12.830Z,15.10
2023-02-09T07:58:41.017Z,16.67
2023-02-09T08:01:11.188Z,16.13
2023-02-09T08:03:39.764Z,14.03
2023-02-09T08:06:13.234Z,14.77
2023-02-09T08:08:43.075Z,15.70
2023-02-09T08:11:11.219Z,15.77
2023-02-09T08:13:40.870Z,13.80
2023-02-09T08:16:10.693Z,14.27
2023-02-09T08:18:40.853Z,14.23
2023-02-09T08:21:11.108Z,14.33
2023-02-09T08:23:40.499Z,15.57
2023-02-09T08:26:12.282Z,12.77
2023-02-09T08:28:44.930Z,16.63
2023-02-09T08:31:13.745Z,15.73
2023-02-09T08:33:42.178Z,12.93
2023-02-09T08:36:11.378Z,13.23
2023-02-09T08:38:39.679Z,13.83
2023-02-09T08:41:10.292Z,13.97
2023-02-09T08:43:38.427Z,14.13
2023-02-09T08:46:07.636Z,12.60
2023-02-09T08:48:37.069Z,14.30
2023-02-09T08:51:05.930Z,15.00
2023-02-09T08:53:34.248Z,14.80
2023-02-09T08:56:02.524Z,19.67
2023-02-09T08:58:33.251Z,26.43
2023-02-09T09:01:01.562Z,19.13
2023-02-09T09:03:31.719Z,16.73
2023-02-09T09:06:00.591Z,16.20
2023-02-09T09:08:28.826Z,18.33
2023-02-09T09:10:57.020Z,17.13
2023-02-09T09:13:25.253Z,17.20
2023-02-09T09:15:55.129Z,16.33
2023-02-09T09:18:24.140Z,17.53
2023-02-09T09:20:52.504Z,18.17
2023-02-09T09:23:21.525Z,17.83
2023-02-09T09:25:49.843Z,18.30
2023-02-09T09:28:18.057Z,19.30
2023-02-09T09:30:46.484Z,21.07
2023-02-09T09:33:16.161Z,20.97
2023-02-09T09:35:44.849Z,19.57
2023-02-09T09:38:13.114Z,19.07
2023-02-09T09:40:42.085Z,20.27
2023-02-09T09:43:16.324Z,18.40
2023-02-09T09:45:46.009Z,17.50
2023-02-09T09:48:23.875Z,19.33
2023-02-09T09:50:52.790Z,17.60
2023-02-09T09:53:28.721Z,17.67
2023-02-09T09:55:59.275Z,19.13
2023-02-09T09:58:27.508Z,19.20
2023-02-09T10:00:56.040Z,17.47
2023-02-09T10:03:25.827Z,19.63
2023-02-09T10:05:55.393Z,25.70
2023-02-09T10:08:28.466Z,17.27
2023-02-09T10:10:58.792Z,20.13
2023-02-09T10:13:28.708Z,18.17
2023-02-09T10:15:57.953Z,18.17
2023-02-09T10:18:30.272Z,17.43
2023-02-09T10:21:03.736Z,16.90
2023-02-09T10:23:39.623Z,19.57
2023-02-09T10:26:21.632Z,19.50
2023-02-09T10:28:51.732Z,20.73
2023-02-09T10:31:25.196Z,19.37
2023-02-09T10:33:58.861Z,20.40
2023-02-09T10:36:30.337Z,17.03
2023-02-09T10:39:16.882Z,19.90
2023-02-09T10:41:47.047Z,18.37
2023-02-09T10:44:20.275Z,20.43
2023-02-09T10:46:48.723Z,19.43
2023-02-09T10:49:33.886Z,20.43
2023-02-09T10:52:16.281Z,19.77
2023-02-09T10:54:44.708Z,21.70
2023-02-09T10:57:28.246Z,19.70
2023-02-09T10:59:57.927Z,23.20
2023-02-09T11:02:38.986Z,20.77
2023-02-09T11:05:33.060Z,23.43
2023-02-09T11:08:13.636Z,25.17
2023-02-09T11:10:45.846Z,25.37
2023-02-09T11:13:23.581Z,24.73
2023-02-09T11:16:27.230Z,22.70
2023-02-09T11:19:00.643Z,23.13
2023-02-09T11:21:41.602Z,24.50
2023-02-09T11:24:16.306Z,23.63
2023-02-09T11:26:49.427Z,24.10
2023-02-09T11:29:25.104Z,24.17
2023-02-09T11:32:09.408Z,22.40
2023-02-09T11:34:55.312Z,24.50
2023-02-09T11:37:35.896Z,22.93
2023-02-09T11:40:26.454Z,22.17
2023-02-09T11:43:14.644Z,26.33
2023-02-09T11:45:45.246Z,27.50
2023-02-09T11:48:15.072Z,25.13
2023-02-09T11:50:53.187Z,22.73
2023-02-09T11:53:31.422Z,23.00
2023-02-09T11:56:00.767Z,25.60
2023-02-09T11:58:37.909Z,25.00
2023-02-09T12:01:15.842Z,23.53
2023-02-09T12:03:49.883Z,24.10
2023-02-09T12:06:22.924Z,25.53
2023-02-09T12:09:00.680Z,27.37
2023-02-09T12:11:40.412Z,23.37
2023-02-09T12:14:39.715Z,23.87
2023-02-09T12:17:13.091Z,24.07
2023-02-09T12:19:44.042Z,23.87
2023-02-09T12:22:55.444Z,23.03
2023-02-09T12:25:49.702Z,23.97
2023-02-09T12:28:45.608Z,28.20
2023-02-09T12:31:19.997Z,24.47
2023-02-09T12:34:25.011Z,25.07
2023-02-09T12:37:28.294Z,28.43
2023-02-09T12:40:22.588Z,27.07
2023-02-09T12:43:27.577Z,25.03
2023-02-09T12:46:23.041Z,23.90
2023-02-09T12:49:20.885Z,24.20
2023-02-09T12:52:07.119Z,26.43
2023-02-09T12:54:42.761Z,27.17
2023-02-09T12:57:56.434Z,26.60
2023-02-09T13:00:55.192Z,26.03
2023-02-09T13:03:24.697Z,26.63
2023-02-09T13:05:52.952Z,25.77
2023-02-09T13:08:29.054Z,25.77
2023-02-09T13:11:00.694Z,23.83
2023-02-09T13:13:36.384Z,24.73
2023-02-09T13:16:39.822Z,26.23
2023-02-09T13:19:18.308Z,25.67
2023-02-09T13:21:57.449Z,22.73
2023-02-09T13:24:35.188Z,22.87
2023-02-09T13:27:03.561Z,23.80
2023-02-09T13:29:32.466Z,24.50
2023-02-09T13:32:08.722Z,25.40
2023-02-09T13:34:39.971Z,24.37
2023-02-09T13:37:19.193Z,22.63
2023-02-09T13:39:47.396Z,23.47
2023-02-09T13:42:20.604Z,23.33
2023-02-09T13:44:51.426Z,22.13
2023-02-09T13:47:21.325Z,23.40
2023-02-09T13:49:58.195Z,25.50
2023-02-09T13:52:26.855Z,26.33
2023-02-09T13:54:55.276Z,24.87
2023-02-09T13:57:34.699Z,27.57
2023-02-09T14:00:10.477Z,23.20
2023-02-09T14:02:50.184Z,22.70
2023-02-09T14:05:26.590Z,24.43
2023-02-09T14:07:54.813Z,29.23
2023-02-09T14:10:23.282Z,25.57
2023-02-09T14:12:55.673Z,23.43
2023-02-09T14:15:45.761Z,24.20
2023-02-09T14:18:47.553Z,26.23
2023-02-09T14:21:19.754Z,29.10
2023-02-09T14:23:49.174Z,25.47
2023-02-09T14:26:23.957Z,23.97
2023-02-09T14:28:54.875Z,35.03
2023-02-09T14:31:24.098Z,26.30
2023-02-09T14:33:54.821Z,27.10
2023-02-09T14:36:26.296Z,31.97
2023-02-09T14:38:55.211Z,29.77
2023-02-09T14:41:29.488Z,36.80
2023-02-09T14:44:01.076Z,23.93
2023-02-09T14:46:29.658Z,23.77
2023-02-09T14:48:59.677Z,25.97
2023-02-09T14:51:28.639Z,22.87
2023-02-09T14:53:57.058Z,27.13
2023-02-09T14:56:28.694Z,22.43
2023-02-09T14:58:57.318Z,25.60
2023-02-09T15:01:25.799Z,24.93
2023-02-09T15:03:54.551Z,21.13
2023-02-09T15:06:26.848Z,26.23
2023-02-09T15:08:55.467Z,30.63
2023-02-09T15:11:43.046Z,26.57
2023-02-09T15:14:12.056Z,22.70
2023-02-09T15:16:40.640Z,26.93
2023-02-09T15:19:12.893Z,21.57
2023-02-09T15:21:42.715Z,24.17
2023-02-09T15:24:11.097Z,21.13
2023-02-09T15:26:39.629Z,25.83
2023-02-09T15:29:12.579Z,25.47
2023-02-09T15:31:41.169Z,22.53
2023-02-09T15:34:11.478Z,20.70
2023-02-09T15:36:39.953Z,22.33
2023-02-09T15:39:13.892Z,21.77
2023-02-09T15:41:59.798Z,22.63
2023-02-09T15:44:50.960Z,21.13
2023-02-09T15:47:45.071Z,23.90
2023-02-09T15:50:13.597Z,21.57
2023-02-09T15:52:42.025Z,21.73
2023-02-09T15:55:14.895Z,21.87
2023-02-09T15:57:43.315Z,25.30
2023-02-09T16:00:18.909Z,20.43
2023-02-09T16:02:49.600Z,20.40
2023-02-09T16:05:18.317Z,25.90
2023-02-09T16:07:46.840Z,20.50
2023-02-09T16:10:22.203Z,24.23
2023-02-09T16:12:50.759Z,23.07
2023-02-09T16:15:19.842Z,23.30
2023-02-09T16:17:48.382Z,21.87
2023-02-09T16:20:17.432Z,21.67
2023-02-09T16:22:57.672Z,22.33
2023-02-09T16:25:27.574Z,23.57
2023-02-09T16:27:56.906Z,26.33
2023-02-09T16:30:27.078Z,25.20
2023-02-09T16:32:55.648Z,23.07
2023-02-09T16:35:25.387Z,24.77
2023-02-09T16:37:53.935Z,27.60
2023-02-09T16:40:28.588Z,25.33
2023-02-09T16:42:57.639Z,28.57
2023-02-09T16:45:26.969Z,25.67
2023-02-09T16:47:59.152Z,31.03
2023-02-09T16:50:33.029Z,28.37
2023-02-09T16:53:16.630Z,24.37
2023-02-09T16:55:49.228Z,29.27
2023-02-09T16:58:18.415Z,26.63
2023-02-09T17:00:46.544Z,30.60
2023-02-09T17:03:16.982Z,24.77
2023-02-09T17:05:47.603Z,23.43
2023-02-09T17:08:18.334Z,28.93
2023-02-09T17:10:48.674Z,24.63
2023-02-09T17:13:20.558Z,26.40
2023-02-09T17:15:50.486Z,26.23
2023-02-09T17:18:21.004Z,28.90
2023-02-09T17:20:51.720Z,27.37
2023-02-09T17:23:23.154Z,26.27
2023-02-09T17:25:55.089Z,27.80
2023-02-09T17:28:23.442Z,26.80
2023-02-09T17:30:51.674Z,25.80
2023-02-09T17:33:23.762Z,35.53
2023-02-09T17:38:41.601Z,28.47
2023-02-09T17:41:15.843Z,30.17
2023-02-09T17:43:44.254Z,26.70
2023-02-09T17:46:12.780Z,28.17
2023-02-09T17:48:41.070Z,28.70
2023-02-09T17:51:12.632Z,30.40
2023-02-09T17:53:41.272Z,32.17
2023-02-09T17:56:11.771Z,26.60
2023-02-09T17:58:39.978Z,25.90
2023-02-09T18:01:21.600Z,24.37
2023-02-09T18:03:50.025Z,27.03
2023-02-09T18:06:19.670Z,28.97
2023-02-09T18:08:47.792Z,28.07
2023-02-09T18:11:17.433Z,30.47
2023-02-09T18:13:45.678Z,30.23
2023-02-09T18:16:14.585Z,31.33
2023-02-09T18:18:44.927Z,28.27
2023-02-09T18:21:15.042Z,31.23
2023-02-09T18:23:43.337Z,29.60
2023-02-09T18:26:11.526Z,28.67
2023-02-09T18:28:41.051Z,25.73
2023-02-09T18:31:13.556Z,30.60
2023-02-09T18:33:41.882Z,32.23
2023-02-09T18:36:10.176Z,27.93
2023-02-09T18:38:39.019Z,29.47
2023-02-09T18:41:07.202Z,26.90
2023-02-09T18:43:35.480Z,26.20
2023-02-09T18:46:06.249Z,30.53
2023-02-09T18:48:34.638Z,28.43
2023-02-09T18:51:02.785Z,33.20
2023-02-09T18:53:30.988Z,28.63
2023-02-09T18:55:59.273Z,28.77
2023-02-09T18:58:27.590Z,35.67
2023-02-09T19:00:55.796Z,34.77
2023-02-09T19:03:25.258Z,35.93
2023-02-09T19:05:53.437Z,33.63
2023-02-09T19:08:21.903Z,33.70
2023-02-09T19:10:50.071Z,32.20
2023-02-09T19:13:18.449Z,28.23
2023-02-09T19:15:46.925Z,29.80
2023-02-09T19:18:15.319Z,29.23
2023-02-09T19:20:44.994Z,28.70
2023-02-09T19:23:13.249Z,35.07
2023-02-09T19:25:41.422Z,33.23
2023-02-09T19:28:09.645Z,32.27
2023-02-09T19:30:37.850Z,32.30
2023-02-09T19:33:06.053Z,30.60
2023-02-09T19:35:34.301Z,36.37
2023-02-09T19:38:03.821Z,33.00
2023-02-09T19:40:36.262Z,31.53
2023-02-09T19:43:04.764Z,30.43
2023-02-09T19:45:36.480Z,33.63
2023-02-09T19:48:05.631Z,35.67
2023-02-09T19:50:33.878Z,33.03
2023-02-09T19:53:03.792Z,27.43
2023-02-09T19:55:32.025Z,31.23
2023-02-09T19:58:00.292Z,29.80
2023-02-09T20:00:28.784Z,31.17
2023-02-09T20:02:57.091Z,29.83
2023-02-09T20:05:25.464Z,32.70
2023-02-09T20:07:54.450Z,33.57
2023-02-09T20:10:24.679Z,36.80
2023-02-09T20:12:52.938Z,32.90
2023-02-09T20:15:21.462Z,32.93
2023-02-09T20:17:49.953Z,29.77
2023-02-09T20:20:18.324Z,29.97
2023-02-09T20:22:48.551Z,31.50
2023-02-09T20:25:17.194Z,33.50
2023-02-09T20:27:48.312Z,29.60
2023-02-09T20:30:16.895Z,36.87
2023-02-09T20:32:45.088Z,33.10
2023-02-09T20:35:13.742Z,30.27
2023-02-09T20:37:41.950Z,30.77
2023-02-09T20:40:11.854Z,31.33
2023-02-09T20:42:57.551Z,29.80
2023-02-09T20:45:44.917Z,28.10
2023-02-09T20:48:14.008Z,30.60
2023-02-09T20:50:42.338Z,28.37
2023-02-09T20:53:10.548Z,31.80
2023-02-09T20:55:38.714Z,27.80
2023-02-09T20:58:07.241Z,24.80
2023-02-09T21:00:36.888Z,26.33
2023-02-09T21:03:05.305Z,25.53
2023-02-09T21:05:33.530Z,28.00
2023-02-09T21:08:04.258Z,26.07
2023-02-09T21:10:35.370Z,27.63
2023-02-09T21:13:04.225Z,27.00
2023-02-09T21:15:32.491Z,31.33
2023-02-09T21:18:02.050Z,31.80
2023-02-09T21:20:32.077Z,26.03
2023-02-09T21:23:00.384Z,28.03
2023-02-09T21:25:28.638Z,24.17
2023-02-09T21:27:59.265Z,24.67
2023-02-09T21:30:27.755Z,26.23
2023-02-09T21:32:56.690Z,25.47
2023-02-09T21:35:26.207Z,25.20
2023-02-09T21:37:54.465Z,28.93
2023-02-09T21:40:23.109Z,26.60
2023-02-09T21:42:51.321Z,26.77
2023-02-09T21:45:19.801Z,27.80
2023-02-09T21:47:48.018Z,28.77
2023-02-09T21:50:16.379Z,30.17
2023-02-09T21:52:45.904Z,28.00
2023-02-09T21:55:14.146Z,27.30
2023-02-09T21:57:42.304Z,25.20
2023-02-09T22:00:13.024Z,27.50
2023-02-09T22:02:41.262Z,26.67
2023-02-09T22:05:09.777Z,24.90
2023-02-09T22:07:37.939Z,30.37
2023-02-09T22:10:09.008Z,25.50
2023-02-09T22:12:38.636Z,24.53
2023-02-09T22:15:07.847Z,26.17
2023-02-09T22:17:37.614Z,24.63
2023-02-09T22:20:06.306Z,28.90
2023-02-09T22:22:34.526Z,25.93
2023-02-09T22:25:02.899Z,27.90
2023-02-09T22:27:32.404Z,25.63
2023-02-09T22:30:00.633Z,28.90
2023-02-09T22:32:28.871Z,24.77
2023-02-09T22:34:57.039Z,28.50
2023-02-09T22:37:25.112Z,26.93
2023-02-09T22:39:53.225Z,26.00
2023-02-09T22:42:21.481Z,27.07
2023-02-09T22:44:51.028Z,24.20
2023-02-09T22:47:19.166Z,23.53
2023-02-09T22:49:47.311Z,24.80
2023-02-09T22:52:15.550Z,27.53
2023-02-09T22:54:43.766Z,26.23
2023-02-09T22:57:11.915Z,26.63
2023-02-09T22:59:40.001Z,25.97
2023-02-09T23:02:12.152Z,25.30
2023-02-09T23:04:40.686Z,25.20
2023-02-09T23:07:08.788Z,28.27
2023-02-09T23:09:36.944Z,25.80
2023-02-09T23:12:05.632Z,24.50
2023-02-09T23:14:33.763Z,27.23
2023-02-09T23:17:01.934Z,26.63
2023-02-09T23:19:31.421Z,24.17
2023-02-09T23:21:59.743Z,25.37
2023-02-09T23:24:27.976Z,29.10
2023-02-09T23:26:56.228Z,27.53
2023-02-09T23:29:24.423Z,25.63
2023-02-09T23:31:52.544Z,25.47
2023-02-09T23:34:23.164Z,24.47
2023-02-09T23:36:52.728Z,25.67
2023-02-09T23:39:22.477Z,25.30
2023-02-09T23:41:50.649Z,26.53
2023-02-09T23:44:19.458Z,27.23
2023-02-09T23:46:47.750Z,25.67
2023-02-09T23:49:15.867Z,25.67
2023-02-09T23:51:45.299Z,25.20
2023-02-09T23:54:14.979Z,26.77
2023-02-09T23:56:44.077Z,24.60
2023-02-09T23:59:15.466Z,26.27
